Minneapolis-St Paul International/Wold-Chamberlain Airport
KMSP : now visible

Airfield :











YOU CAN JOIN US ON...

 
LOGIN :

Register | Disclaimer

   EN    FR    IT 

 









Legend :    VFR   Marginal VFR   IFR   Intensive IFR   Very Intensive IFR
Visi :
Ceiling :
>= 8 km
>= 3000ft
5 to 8 km
1000 to 3000 ft
1500m to 5 km
500 to 1000 ft
800 to 1500m
200 to 500 ft
< 800m
< 200 ft
Symbols :   Thunderstorms  Fog  Heavy snow  Heavy precipitations  Wind > 20 kt






- Airport Elevation : 841 ft
- IATA code : MSP


KMSP - Minneapolis-St Paul International/Wold-Chamberlain

CURRENT METAR :
  • 070453Z 30003KT 10SM CLR 24/19 A2996 RMK AO2 SLP140 T02390194

EXPIRED METARs :
  • 070353Z 28005KT 10SM CLR 25/19 A2996 RMK AO2 SLP139 T02500194
  • 070253Z 28004KT 10SM FEW045 FEW070 FEW150 SCT250 26/19 A2995 RMK AO2 SLP135 T02560189 53003

TAF KMSP
Valid from the 07 at 06:00 until the 08 at 12:00 UTC


070525Z 0706/0812 26003KT P6SM FEW250
FM071500 12003KT P6SM SCT250
FM072000 14003KT P6SM SCT250
KZMP FIR / North America



MET'MAP, your aeronautical weather chart ! - Copyright ORBIFLY December 2007 - Disclaimer

ORBIFLY MET'MAP TEAM :

Programming & Development : Alexandra Zaïnal
Concept & original design : Baudouin d'Aumeries
Assistance for programming : Marc-Olivier Méhu
Technical & hardware support : Manuel Goepfert

Contact : metmap@orbifly.com




SOURCES & CREDITS :

   NOAA       Earth
Advisory